Time;durP1;ratioP1;P1;durP2;ratioP2;P2;SDS_P1;SDS_P2;PMS_P1;PMS_P2;Temp;Humidity;BMP_temperature;BMP_pressure;BME280_temperature;BME280_humidity;BME280_pressure;Samples;Min_cycle;Max_cycle;Signal;HPM_P1;HPM_P2
2021/03/30 00:00:21;;;;;;;3.33;3.00;;;11.90;70.60;;;;;;5013696;28;20195;-78
2021/03/30 00:02:46;;;;;;;3.73;3.33;;;11.80;70.80;;;;;;5011581;28;20495;-76
2021/03/30 00:05:13;;;;;;;4.57;3.60;;;11.90;71.90;;;;;;5011004;28;20454;-78
2021/03/30 00:07:38;;;;;;;3.20;2.90;;;11.80;72.30;;;;;;5016681;28;20254;-78
2021/03/30 00:10:06;;;;;;;4.10;3.70;;;11.80;72.00;;;;;;5015198;28;20875;-79
2021/03/30 00:12:32;;;;;;;3.53;3.23;;;11.80;71.50;;;;;;5018458;28;20195;-79
2021/03/30 00:14:57;;;;;;;3.40;3.10;;;11.80;71.60;;;;;;5015731;28;20440;-79
2021/03/30 00:17:23;;;;;;;3.57;3.10;;;11.70;71.60;;;;;;5023134;28;20630;-79
2021/03/30 00:19:48;;;;;;;3.63;2.90;;;11.80;71.60;;;;;;5017091;28;20215;-78
2021/03/30 00:22:14;;;;;;;4.13;3.73;;;11.70;71.50;;;;;;5023113;28;20278;-78
2021/03/30 00:24:39;;;;;;;3.70;3.10;;;11.70;72.00;;;;;;5016391;28;20219;-78
2021/03/30 00:27:06;;;;;;;3.93;3.43;;;11.70;72.40;;;;;;5022966;28;20238;-78
2021/03/30 00:29:42;;;;;;;3.67;3.13;;;11.60;72.10;;;;;;5027388;28;20215;-79
2021/03/30 00:32:11;;;;;;;5.10;2.73;;;11.60;72.00;;;;;;5023362;28;20442;-78
2021/03/30 00:34:36;;;;;;;5.63;4.67;;;11.60;72.10;;;;;;5020918;28;20521;-76
2021/03/30 00:37:03;;;;;;;3.37;3.07;;;11.60;73.10;;;;;;5015109;28;20508;-78
2021/03/30 00:39:29;;;;;;;3.87;3.07;;;11.50;73.50;;;;;;5017520;28;20570;-78
2021/03/30 00:41:54;;;;;;;5.40;4.00;;;11.40;74.00;;;;;;5011597;28;20481;-79
2021/03/30 00:44:20;;;;;;;4.77;4.20;;;11.40;75.40;;;;;;5015296;28;20195;-78
2021/03/30 00:46:46;;;;;;;5.43;3.77;;;11.40;74.30;;;;;;5014661;28;20219;-78
2021/03/30 00:49:16;;;;;;;6.63;3.97;;;11.40;74.20;;;;;;5016386;28;20315;-77
2021/03/30 00:51:47;;;;;;;3.83;3.53;;;11.20;75.00;;;;;;5027844;28;20850;-77
2021/03/30 00:54:14;;;;;;;4.30;3.90;;;11.10;75.80;;;;;;5017380;28;20442;-79
2021/03/30 00:56:41;;;;;;;5.40;4.07;;;11.10;75.90;;;;;;5019688;28;20462;-78
2021/03/30 00:59:07;;;;;;;4.80;4.37;;;11.10;76.60;;;;;;5015598;28;20446;-79
2021/03/30 01:01:33;;;;;;;4.97;4.50;;;11.00;76.40;;;;;;5025261;28;20525;-78
2021/03/30 01:03:58;;;;;;;12.10;5.77;;;11.00;77.00;;;;;;5015318;28;20442;-78
2021/03/30 01:06:25;;;;;;;7.20;4.50;;;11.00;76.60;;;;;;5026106;28;20215;-78
2021/03/30 01:09:15;;;;;;;5.07;3.90;;;11.00;77.70;;;;;;5021284;28;20213;-79
2021/03/30 01:12:05;;;;;;;4.60;4.20;;;10.80;78.50;;;;;;5025712;28;20468;-80
2021/03/30 01:14:46;;;;;;;5.13;4.13;;;10.70;78.60;;;;;;5019067;28;20484;-78
2021/03/30 01:17:37;;;;;;;4.50;4.10;;;10.60;80.30;;;;;;5026070;28;20430;-78
2021/03/30 01:20:31;;;;;;;5.10;4.60;;;10.60;81.50;;;;;;5014187;28;20453;-79
2021/03/30 01:23:30;;;;;;;4.90;4.40;;;10.50;81.80;;;;;;5016427;28;20521;-78
2021/03/30 01:26:24;;;;;;;5.93;4.17;;;10.40;82.00;;;;;;5012612;28;20431;-78
2021/03/30 01:29:02;;;;;;;4.83;4.10;;;10.30;84.20;;;;;;5022608;28;20453;-77
2021/03/30 01:31:33;;;;;;;4.50;4.20;;;10.20;83.10;;;;;;5024364;28;20814;-77
2021/03/30 01:34:01;;;;;;;4.63;4.13;;;10.20;84.00;;;;;;5025572;28;20434;-77
2021/03/30 01:36:29;;;;;;;4.50;3.60;;;10.10;86.90;;;;;;5016156;28;20958;-77
2021/03/30 01:38:56;;;;;;;5.80;4.70;;;10.00;87.10;;;;;;5016023;28;20458;-78
2021/03/30 01:41:23;;;;;;;4.47;4.07;;;9.90;89.60;;;;;;5025169;28;20429;-80
2021/03/30 01:43:51;;;;;;;4.60;4.17;;;9.80;90.50;;;;;;5015999;28;20437;-79
2021/03/30 01:46:17;;;;;;;4.60;4.00;;;9.80;91.60;;;;;;5021291;28;21019;-79
2021/03/30 01:48:45;;;;;;;5.63;4.27;;;9.70;92.60;;;;;;5020541;28;20511;-79
2021/03/30 01:51:13;;;;;;;5.77;4.17;;;9.70;92.60;;;;;;5020820;28;20515;-78
2021/03/30 01:53:43;;;;;;;5.70;5.20;;;9.60;93.30;;;;;;5022685;28;20749;-79
2021/03/30 01:56:11;;;;;;;6.20;5.10;;;9.60;92.50;;;;;;5025110;28;20440;-79
2021/03/30 01:58:38;;;;;;;5.90;4.80;;;9.60;92.30;;;;;;5023539;28;20488;-79
2021/03/30 02:01:05;;;;;;;4.90;4.50;;;9.50;92.50;;;;;;5017153;28;20461;-78
2021/03/30 02:03:31;;;;;;;7.87;5.00;;;9.40;92.70;;;;;;5020946;28;20899;-78
2021/03/30 02:05:57;;;;;;;7.50;5.27;;;9.40;94.00;;;;;;5021517;28;20437;-77
2021/03/30 02:08:31;;;;;;;6.03;4.73;;;9.30;94.40;;;;;;5018862;28;20204;-77
2021/03/30 02:10:57;;;;;;;5.70;5.20;;;9.30;94.90;;;;;;5020084;28;20858;-78
2021/03/30 02:13:33;;;;;;;5.37;4.33;;;9.20;95.30;;;;;;5021181;28;20594;-78
2021/03/30 02:16:13;;;;;;;6.57;4.80;;;9.20;96.20;;;;;;5013952;28;20469;-76
2021/03/30 02:18:51;;;;;;;5.90;4.63;;;9.10;96.40;;;;;;5022700;28;20468;-78
2021/03/30 02:21:25;;;;;;;7.00;5.87;;;9.00;97.10;;;;;;5015410;28;20434;-78
2021/03/30 02:23:51;;;;;;;8.30;5.00;;;9.00;98.60;;;;;;5011383;28;20442;-78
2021/03/30 02:26:18;;;;;;;6.43;5.40;;;8.90;98.40;;;;;;5016149;28;20498;-78
2021/03/30 02:31:15;;;;;;;4.30;4.00;;;8.90;98.20;;;;;;5021535;28;20503;-78
2021/03/30 02:33:45;;;;;;;5.90;4.63;;;8.90;98.90;;;;;;5018910;28;20429;-78
2021/03/30 02:36:11;;;;;;;4.77;4.20;;;8.80;98.50;;;;;;5015296;28;20885;-77
2021/03/30 02:38:37;;;;;;;6.00;4.30;;;8.80;98.80;;;;;;5013236;28;20485;-80
2021/03/30 02:41:03;;;;;;;5.53;5.03;;;8.80;99.70;;;;;;5025771;28;20184;-79
2021/03/30 02:43:30;;;;;;;5.37;4.40;;;8.70;99.60;;;;;;5015643;28;20449;-79
2021/03/30 02:45:56;;;;;;;5.07;4.50;;;8.70;99.90;;;;;;5016128;28;20450;-77
2021/03/30 02:48:22;;;;;;;8.03;4.50;;;8.80;98.90;;;;;;5010125;28;21176;-79
2021/03/30 02:50:49;;;;;;;7.60;5.30;;;8.80;98.90;;;;;;5024509;28;20415;-79
2021/03/30 02:53:15;;;;;;;7.40;5.00;;;8.90;99.00;;;;;;5017211;28;20179;-79
2021/03/30 02:55:43;;;;;;;7.10;4.97;;;8.80;99.20;;;;;;5024170;28;21003;-77
2021/03/30 02:58:10;;;;;;;5.77;4.67;;;8.80;99.00;;;;;;5017888;28;20190;-77
2021/03/30 03:00:38;;;;;;;4.70;4.10;;;8.70;99.00;;;;;;5015980;28;20426;-76
2021/03/30 03:03:08;;;;;;;5.13;4.60;;;8.60;99.90;;;;;;5018305;28;20502;-76
2021/03/30 03:05:34;;;;;;;5.83;5.30;;;8.60;99.90;;;;;;5021728;28;20875;-79
2021/03/30 03:08:01;;;;;;;5.23;4.53;;;8.50;99.90;;;;;;5020210;28;20477;-79
2021/03/30 03:10:27;;;;;;;8.63;5.20;;;8.50;99.90;;;;;;5024455;28;20428;-78
2021/03/30 03:12:54;;;;;;;6.83;5.00;;;8.40;99.90;;;;;;5021737;28;20419;-75
2021/03/30 03:15:21;;;;;;;7.03;4.63;;;8.40;99.90;;;;;;5022797;28;20444;-77
2021/03/30 03:17:49;;;;;;;9.10;4.37;;;8.30;99.90;;;;;;5026803;28;20437;-78
2021/03/30 03:20:15;;;;;;;5.70;3.90;;;8.30;99.90;;;;;;5018926;28;20947;-79
2021/03/30 03:22:41;;;;;;;5.10;4.30;;;8.30;99.90;;;;;;5018747;28;20411;-78
2021/03/30 03:25:08;;;;;;;5.13;4.40;;;8.20;99.90;;;;;;5028303;28;20417;-78
2021/03/30 03:27:35;;;;;;;5.50;4.07;;;8.20;99.90;;;;;;5010180;28;20835;-78
2021/03/30 03:30:08;;;;;;;6.17;4.20;;;8.20;99.90;;;;;;5018558;28;20486;-80
2021/03/30 03:32:34;;;;;;;13.50;4.97;;;8.20;99.90;;;;;;5024523;28;20465;-79
2021/03/30 03:35:00;;;;;;;4.60;3.63;;;8.10;99.90;;;;;;5019148;28;20457;-78
2021/03/30 03:37:26;;;;;;;7.87;4.50;;;8.10;99.90;;;;;;5018069;28;20426;-78
2021/03/30 03:39:52;;;;;;;5.37;4.87;;;8.00;99.90;;;;;;5017556;28;21068;-79
2021/03/30 03:42:18;;;;;;;5.00;3.90;;;7.90;99.90;;;;;;5022127;28;20191;-79
2021/03/30 03:44:44;;;;;;;5.33;4.83;;;7.90;99.90;;;;;;5024744;28;20198;-80
2021/03/30 03:47:10;;;;;;;8.03;5.03;;;7.90;99.90;;;;;;5036327;28;20469;-79
2021/03/30 03:49:35;;;;;;;5.30;4.80;;;7.90;99.90;;;;;;5036250;28;20547;-79
2021/03/30 03:52:04;;;;;;;4.53;4.13;;;7.80;99.90;;;;;;5027069;28;20918;-80
2021/03/30 03:54:32;;;;;;;6.20;4.20;;;7.80;99.90;;;;;;5032479;28;20190;-80
2021/03/30 03:57:11;;;;;;;7.60;4.50;;;7.80;99.90;;;;;;5025351;28;20428;-80
2021/03/30 03:59:39;;;;;;;4.63;4.23;;;7.80;99.90;;;;;;5031261;28;20453;-79
2021/03/30 04:02:22;;;;;;;4.67;4.20;;;7.80;99.90;;;;;;5036455;28;20438;-78
2021/03/30 04:05:23;;;;;;;4.33;3.70;;;7.80;99.90;;;;;;5035071;28;20421;-78
2021/03/30 04:07:58;;;;;;;4.37;3.97;;;7.80;99.90;;;;;;4971526;28;20913;-79
2021/03/30 04:10:26;;;;;;;4.40;3.97;;;7.80;99.90;;;;;;4967692;28;20464;-78
2021/03/30 04:12:52;;;;;;;3.70;3.37;;;7.70;99.90;;;;;;4958862;28;20436;-80
2021/03/30 04:15:21;;;;;;;4.10;3.73;;;7.70;99.90;;;;;;4967859;28;20421;-78
2021/03/30 04:17:47;;;;;;;6.10;4.40;;;7.70;99.90;;;;;;4958761;28;20436;-78
2021/03/30 04:20:15;;;;;;;5.40;3.80;;;7.70;99.90;;;;;;4940090;28;20475;-78
2021/03/30 04:22:44;;;;;;;3.80;3.50;;;7.60;99.90;;;;;;4953863;28;20530;-76
2021/03/30 04:25:10;;;;;;;5.33;3.87;;;7.60;99.90;;;;;;4945893;28;20539;-80
2021/03/30 04:27:36;;;;;;;4.97;3.87;;;7.60;99.90;;;;;;4955200;28;20529;-79
2021/03/30 04:30:02;;;;;;;4.50;3.70;;;7.60;99.90;;;;;;4942697;28;20457;-78
2021/03/30 04:32:28;;;;;;;4.30;3.90;;;7.50;99.90;;;;;;4943968;28;20573;-78
2021/03/30 04:34:53;;;;;;;6.47;3.93;;;7.50;99.90;;;;;;4948367;29;20430;-78
2021/03/30 04:37:19;;;;;;;4.67;3.60;;;7.50;99.90;;;;;;4963750;28;20304;-78
2021/03/30 04:39:45;;;;;;;7.50;3.90;;;7.60;99.90;;;;;;4961009;28;20233;-78
2021/03/30 04:42:11;;;;;;;4.70;3.87;;;7.50;99.90;;;;;;4956891;28;20208;-77
2021/03/30 04:44:37;;;;;;;5.80;4.23;;;7.50;99.90;;;;;;5010046;28;20469;-78
2021/03/30 04:47:03;;;;;;;5.30;4.57;;;7.40;99.90;;;;;;5017369;28;20211;-79
2021/03/30 04:49:29;;;;;;;5.03;4.27;;;7.40;99.90;;;;;;5022277;28;20473;-78
2021/03/30 04:51:54;;;;;;;5.87;4.60;;;7.40;99.90;;;;;;5022323;28;20187;-79
2021/03/30 04:54:20;;;;;;;5.60;4.00;;;7.40;99.90;;;;;;5026990;28;20734;-77
2021/03/30 04:56:46;;;;;;;5.87;5.23;;;7.30;99.90;;;;;;5014436;28;20198;-79
2021/03/30 04:59:12;;;;;;;5.93;5.13;;;7.30;99.90;;;;;;5028559;28;20214;-82
2021/03/30 05:01:37;;;;;;;7.40;6.30;;;7.30;99.90;;;;;;5027086;28;20449;-80
2021/03/30 05:04:03;;;;;;;9.30;6.23;;;7.20;99.90;;;;;;5021543;28;20209;-79
2021/03/30 05:06:29;;;;;;;6.10;5.50;;;7.20;99.90;;;;;;5012309;28;20219;-79
2021/03/30 05:08:54;;;;;;;5.83;5.13;;;7.20;99.90;;;;;;5025511;28;20604;-78
2021/03/30 05:11:20;;;;;;;8.40;5.83;;;7.20;99.90;;;;;;5014849;28;20198;-78
2021/03/30 05:13:45;;;;;;;6.40;5.43;;;7.20;99.90;;;;;;5018008;28;20561;-78
2021/03/30 05:16:11;;;;;;;7.13;6.30;;;7.10;99.90;;;;;;5022461;28;21482;-79
2021/03/30 05:18:37;;;;;;;9.87;5.80;;;7.10;99.90;;;;;;5017334;28;20228;-77
2021/03/30 05:21:03;;;;;;;6.33;5.83;;;7.10;99.90;;;;;;5017135;28;20279;-79
2021/03/30 05:23:29;;;;;;;8.67;5.10;;;7.10;99.90;;;;;;5018561;28;20441;-75
2021/03/30 05:25:55;;;;;;;7.00;5.40;;;7.10;99.90;;;;;;5013554;28;20418;-78
2021/03/30 05:28:20;;;;;;;6.77;4.87;;;7.10;99.90;;;;;;5011650;28;20211;-75
2021/03/30 05:30:46;;;;;;;7.57;5.23;;;7.10;99.90;;;;;;5026988;28;20178;-78
2021/03/30 05:33:11;;;;;;;5.73;5.00;;;7.10;99.90;;;;;;5021435;28;20780;-77
2021/03/30 05:35:37;;;;;;;6.40;5.40;;;7.10;99.90;;;;;;5017597;28;20246;-78
2021/03/30 05:38:02;;;;;;;7.07;5.60;;;7.10;99.90;;;;;;5022458;28;20200;-78
2021/03/30 05:40:28;;;;;;;5.90;5.40;;;7.10;99.90;;;;;;5011423;28;20223;-77
2021/03/30 05:42:54;;;;;;;7.40;6.80;;;7.20;99.90;;;;;;5013326;28;20224;-75
2021/03/30 05:45:21;;;;;;;7.47;6.27;;;7.20;99.90;;;;;;5018782;28;20195;-77
2021/03/30 05:47:50;;;;;;;8.17;6.33;;;7.20;99.90;;;;;;5016237;28;20620;-79
2021/03/30 05:50:18;;;;;;;7.57;6.60;;;7.20;99.90;;;;;;5027179;28;20519;-80
2021/03/30 05:55:26;;;;;;;13.70;7.97;;;7.30;99.90;;;;;;5015500;28;20457;-79
2021/03/30 05:57:57;;;;;;;8.33;7.17;;;7.40;99.90;;;;;;5014260;28;20803;-80
2021/03/30 06:00:26;;;;;;;10.47;7.13;;;7.40;99.90;;;;;;5013930;28;20439;-78
2021/03/30 06:02:58;;;;;;;9.43;7.60;;;7.50;99.90;;;;;;5019258;28;20437;-77
2021/03/30 06:05:24;;;;;;;9.47;6.80;;;7.70;99.90;;;;;;5021994;28;20437;-76
2021/03/30 06:07:57;;;;;;;11.93;7.93;;;7.70;99.90;;;;;;5016106;28;20496;-78
2021/03/30 06:10:24;;;;;;;9.17;7.50;;;7.80;99.90;;;;;;5033498;28;20429;-79
2021/03/30 06:12:50;;;;;;;9.47;6.83;;;7.90;99.90;;;;;;5024350;28;20513;-77
2021/03/30 06:15:16;;;;;;;7.20;6.23;;;8.10;99.90;;;;;;5021644;28;20458;-80
2021/03/30 06:17:50;;;;;;;7.97;6.30;;;8.20;99.90;;;;;;5030121;28;20187;-77
2021/03/30 06:20:34;;;;;;;11.03;7.83;;;8.30;99.90;;;;;;5022149;28;20541;-78
2021/03/30 06:23:04;;;;;;;7.83;5.70;;;8.40;99.90;;;;;;5020942;28;20529;-77
2021/03/30 06:25:34;;;;;;;9.67;7.07;;;8.40;99.90;;;;;;5018224;28;20426;-79
2021/03/30 06:28:29;;;;;;;7.33;5.73;;;8.60;99.90;;;;;;5016710;28;20458;-76
2021/03/30 06:31:04;;;;;;;5.83;5.23;;;8.70;99.90;;;;;;5018612;28;20422;-77
2021/03/30 06:33:33;;;;;;;11.53;6.80;;;8.90;99.90;;;;;;5023018;28;20524;-78
2021/03/30 06:36:34;;;;;;;6.80;6.10;;;9.00;99.90;;;;;;5020485;28;20437;-78
2021/03/30 06:39:03;;;;;;;6.83;6.17;;;9.20;99.90;;;;;;4963711;28;20479;-80
2021/03/30 06:42:04;;;;;;;8.87;7.00;;;9.30;99.90;;;;;;4961958;28;20511;-79
2021/03/30 06:44:35;;;;;;;8.13;6.60;;;9.40;99.90;;;;;;4945053;28;20518;-79
2021/03/30 06:47:13;;;;;;;10.90;6.60;;;9.60;99.90;;;;;;4960012;28;21365;-76
2021/03/30 06:49:50;;;;;;;7.27;6.57;;;9.70;99.90;;;;;;4963954;28;21197;-78
2021/03/30 06:52:30;;;;;;;8.13;6.00;;;9.80;99.90;;;;;;4942977;29;20430;-77
2021/03/30 06:54:59;;;;;;;7.20;6.50;;;9.90;99.90;;;;;;4949148;28;20450;-78
2021/03/30 06:57:44;;;;;;;11.50;6.63;;;10.00;99.90;;;;;;4962827;28;20783;-77
2021/03/30 07:00:30;;;;;;;7.80;6.70;;;10.20;99.90;;;;;;4953259;28;20461;-77
2021/03/30 07:03:02;;;;;;;8.30;7.50;;;10.30;99.90;;;;;;4958307;28;21026;-77
2021/03/30 07:05:43;;;;;;;8.77;7.13;;;10.50;99.90;;;;;;4960164;28;20467;-76
2021/03/30 07:08:10;;;;;;;9.27;8.07;;;10.70;99.90;;;;;;4952914;28;20808;-77
2021/03/30 07:10:40;;;;;;;10.77;7.10;;;10.80;99.90;;;;;;4958443;28;20461;-76
2021/03/30 07:13:07;;;;;;;13.90;7.83;;;10.90;99.90;;;;;;4990513;28;20428;-79
2021/03/30 07:15:33;;;;;;;10.80;7.63;;;11.00;99.90;;;;;;5016480;28;20841;-77
2021/03/30 07:18:07;;;;;;;8.20;7.47;;;11.30;99.90;;;;;;5020752;28;20430;-78
2021/03/30 07:20:44;;;;;;;9.97;7.70;;;11.30;99.90;;;;;;5021750;28;20608;-78
2021/03/30 07:23:19;;;;;;;7.90;7.13;;;11.60;99.90;;;;;;5019959;28;20473;-79
2021/03/30 07:25:58;;;;;;;8.87;7.47;;;11.80;99.90;;;;;;5015000;28;20493;-79
2021/03/30 07:28:28;;;;;;;14.03;9.07;;;11.90;99.90;;;;;;5016099;28;20477;-78
2021/03/30 07:30:55;;;;;;;11.50;8.50;;;12.10;99.90;;;;;;5017009;28;20435;-78
2021/03/30 07:33:36;;;;;;;9.50;8.67;;;12.10;99.90;;;;;;5018822;28;20961;-79
2021/03/30 07:36:03;;;;;;;10.67;8.60;;;12.20;99.90;;;;;;5016207;28;20422;-78
2021/03/30 07:38:43;;;;;;;9.83;8.93;;;12.30;99.90;;;;;;5023368;28;20453;-78
2021/03/30 07:41:09;;;;;;;12.47;8.50;;;12.30;99.50;;;;;;5016579;28;20442;-78
2021/03/30 07:43:36;;;;;;;12.77;9.67;;;12.40;99.60;;;;;;5019439;28;20628;-76
2021/03/30 07:46:03;;;;;;;12.87;8.67;;;12.60;99.60;;;;;;5027035;28;20298;-79
2021/03/30 07:48:31;;;;;;;9.77;8.77;;;12.70;99.00;;;;;;5027064;28;20462;-76
2021/03/30 07:51:06;;;;;;;10.53;9.37;;;12.70;99.10;;;;;;5015880;28;20438;-76
2021/03/30 07:53:54;;;;;;;10.30;9.20;;;12.90;99.00;;;;;;5014895;28;20956;-76
2021/03/30 07:56:25;;;;;;;14.17;9.90;;;13.10;99.10;;;;;;5018579;28;21024;-78
2021/03/30 07:58:56;;;;;;;13.00;9.80;;;13.40;97.10;;;;;;5020647;28;20443;-78
2021/03/30 08:01:24;;;;;;;14.13;9.60;;;13.50;96.90;;;;;;5026265;28;20968;-78
2021/03/30 08:03:54;;;;;;;9.73;8.80;;;13.60;96.20;;;;;;5022160;28;20427;-78
2021/03/30 08:06:23;;;;;;;10.47;9.37;;;13.80;95.30;;;;;;5017871;28;20436;-77
2021/03/30 08:09:07;;;;;;;11.30;9.20;;;13.80;95.10;;;;;;5030147;28;20441;-76
2021/03/30 08:11:39;;;;;;;10.67;9.57;;;14.00;94.80;;;;;;5025666;28;20434;-76
2021/03/30 08:14:12;;;;;;;11.53;10.10;;;14.00;94.50;;;;;;5026168;28;20903;-78
2021/03/30 08:16:39;;;;;;;12.23;10.70;;;14.20;94.30;;;;;;5018412;28;20434;-77
2021/03/30 08:19:11;;;;;;;11.93;10.57;;;14.30;94.40;;;;;;5028461;28;20942;-77
2021/03/30 08:21:57;;;;;;;11.13;9.13;;;14.40;94.30;;;;;;5014735;28;20441;-78
2021/03/30 08:24:25;;;;;;;12.33;10.27;;;14.60;93.30;;;;;;5016732;28;20434;-76
2021/03/30 08:26:51;;;;;;;10.53;8.73;;;14.70;93.30;;;;;;5021317;28;20525;-77
2021/03/30 08:29:34;;;;;;;13.23;11.43;;;14.80;92.80;;;;;;5020538;28;20905;-75
2021/03/30 08:32:01;;;;;;;13.43;11.23;;;14.90;92.70;;;;;;5014786;28;20931;-78
2021/03/30 08:34:38;;;;;;;12.93;11.40;;;14.90;92.80;;;;;;5016645;28;20442;-76
2021/03/30 08:37:12;;;;;;;15.53;11.70;;;14.90;92.20;;;;;;5042338;28;20859;-75
2021/03/30 08:39:39;;;;;;;12.93;10.97;;;15.00;92.10;;;;;;5016915;28;20477;-77
2021/03/30 08:42:04;;;;;;;14.93;10.10;;;15.10;91.90;;;;;;5022153;28;20437;-75
2021/03/30 08:44:38;;;;;;;12.70;10.27;;;15.20;91.00;;;;;;5022105;28;20430;-77
2021/03/30 08:47:05;;;;;;;15.23;11.63;;;15.20;91.00;;;;;;5012438;28;20266;-78
2021/03/30 08:49:44;;;;;;;14.07;11.67;;;15.20;90.80;;;;;;5022940;28;20461;-78
2021/03/30 08:52:14;;;;;;;15.90;13.27;;;15.40;90.80;;;;;;5023090;28;20441;-79
2021/03/30 08:54:59;;;;;;;13.03;11.63;;;15.40;90.50;;;;;;5048761;28;20453;-79
2021/03/30 08:57:30;;;;;;;17.27;12.20;;;15.60;90.60;;;;;;5050156;28;20467;-78
2021/03/30 08:59:56;;;;;;;15.20;10.70;;;15.70;90.00;;;;;;5022794;28;20457;-77
2021/03/30 09:02:24;;;;;;;12.00;10.87;;;15.70;90.00;;;;;;5019336;28;20784;-78
2021/03/30 09:04:50;;;;;;;15.70;11.27;;;15.80;89.80;;;;;;5017915;28;20179;-78
2021/03/30 09:07:16;;;;;;;16.50;11.77;;;15.80;89.10;;;;;;5017352;28;20469;-78
2021/03/30 09:09:42;;;;;;;12.83;11.30;;;15.90;88.60;;;;;;5037800;28;20465;-77
2021/03/30 09:12:16;;;;;;;13.90;12.13;;;15.90;88.70;;;;;;5041076;28;20437;-79
2021/03/30 09:14:46;;;;;;;12.73;10.53;;;16.00;88.60;;;;;;5046491;28;20214;-78
2021/03/30 09:17:15;;;;;;;12.77;11.57;;;16.00;88.80;;;;;;5030260;28;20486;-77
2021/03/30 09:19:44;;;;;;;16.27;12.17;;;16.20;89.30;;;;;;5027712;28;20580;-77
2021/03/30 09:22:24;;;;;;;17.07;12.13;;;16.30;87.90;;;;;;5015592;28;20785;-77
2021/03/30 09:27:52;;;;;;;12.40;11.17;;;16.60;88.10;;;;;;5015778;28;20508;-79
2021/03/30 09:30:20;;;;;;;12.60;10.70;;;16.60;87.70;;;;;;5012789;28;20513;-76
2021/03/30 09:32:47;;;;;;;16.27;10.80;;;16.70;88.00;;;;;;5017742;28;20425;-75
2021/03/30 09:35:16;;;;;;;13.10;11.67;;;16.80;88.20;;;;;;5022651;28;20434;-76
2021/03/30 09:37:48;;;;;;;11.83;10.50;;;16.80;88.20;;;;;;5016508;28;20435;-76
2021/03/30 09:40:17;;;;;;;12.93;8.77;;;17.00;87.50;;;;;;5023886;28;20461;-77
2021/03/30 09:42:43;;;;;;;7.60;6.90;;;17.00;85.60;;;;;;5020926;28;21053;-76
2021/03/30 09:45:12;;;;;;;8.80;7.67;;;17.10;85.80;;;;;;5028619;28;20430;-77
2021/03/30 09:47:39;;;;;;;11.17;9.77;;;17.30;84.50;;;;;;5027690;28;20461;-76
2021/03/30 09:50:06;;;;;;;10.13;8.90;;;17.50;84.10;;;;;;5018591;28;20461;-76
2021/03/30 09:52:32;;;;;;;12.97;9.03;;;17.60;84.20;;;;;;5016205;28;20434;-76
2021/03/30 09:54:59;;;;;;;9.57;8.57;;;17.60;84.50;;;;;;5013755;28;20799;-75
2021/03/30 09:57:31;;;;;;;8.40;7.53;;;17.70;82.70;;;;;;5020002;28;20555;-77
2021/03/30 09:59:57;;;;;;;10.07;8.17;;;17.80;82.40;;;;;;5024467;28;20478;-78
2021/03/30 10:02:35;;;;;;;9.93;7.77;;;17.90;82.70;;;;;;5027135;28;20429;-78
2021/03/30 10:05:06;;;;;;;9.23;8.33;;;18.00;82.60;;;;;;5012288;28;20430;-78
2021/03/30 10:07:35;;;;;;;8.93;7.40;;;18.10;81.70;;;;;;5026018;28;20548;-79
2021/03/30 10:10:11;;;;;;;7.90;6.27;;;18.20;80.30;;;;;;5029203;28;20437;-79
2021/03/30 10:12:58;;;;;;;10.00;7.97;;;18.20;80.20;;;;;;5027160;28;20432;-77
2021/03/30 10:15:40;;;;;;;12.87;7.20;;;18.30;80.90;;;;;;5037409;28;20436;-79
2021/03/30 10:18:08;;;;;;;7.47;6.60;;;18.30;79.40;;;;;;5024432;28;20430;-77
2021/03/30 10:20:44;;;;;;;7.90;6.20;;;18.40;80.20;;;;;;5027656;28;20425;-77
2021/03/30 10:23:21;;;;;;;7.37;6.77;;;18.50;78.00;;;;;;5029399;28;20433;-79
2021/03/30 10:25:48;;;;;;;7.07;6.10;;;18.70;77.20;;;;;;5020418;28;20425;-79
2021/03/30 10:28:30;;;;;;;6.30;5.77;;;18.80;76.20;;;;;;5016331;28;20620;-77
2021/03/30 10:31:03;;;;;;;7.40;6.53;;;18.80;75.50;;;;;;5015455;28;20434;-78
2021/03/30 10:33:41;;;;;;;7.10;6.40;;;19.00;76.80;;;;;;5022669;28;20466;-77
2021/03/30 10:36:09;;;;;;;7.67;6.93;;;19.10;75.30;;;;;;5011761;28;20481;-78
2021/03/30 10:38:37;;;;;;;7.70;6.90;;;19.30;75.30;;;;;;5018143;28;20454;-77
2021/03/30 10:41:11;;;;;;;6.57;5.97;;;19.40;75.60;;;;;;5021577;28;21001;-77
2021/03/30 10:43:38;;;;;;;7.43;6.50;;;19.50;74.30;;;;;;5024297;28;20476;-78
2021/03/30 10:46:20;;;;;;;7.43;5.70;;;19.70;72.30;;;;;;5020065;28;20476;-76
2021/03/30 10:49:03;;;;;;;7.57;5.30;;;19.80;71.20;;;;;;5023719;28;20536;-78
2021/03/30 10:51:34;;;;;;;8.50;5.77;;;20.00;69.80;;;;;;5019467;28;20516;-77
2021/03/30 10:54:02;;;;;;;10.00;5.87;;;20.00;68.20;;;;;;5014897;28;20430;-78
2021/03/30 10:56:29;;;;;;;6.47;5.00;;;20.10;68.00;;;;;;5024446;28;20427;-77
2021/03/30 10:58:55;;;;;;;7.57;6.70;;;20.00;66.50;;;;;;5016874;28;20774;-79
2021/03/30 11:01:20;;;;;;;6.93;6.10;;;20.10;67.60;;;;;;5018231;28;20435;-77
2021/03/30 11:03:46;;;;;;;7.33;6.43;;;19.90;67.10;;;;;;5020955;28;20183;-77
2021/03/30 11:06:12;;;;;;;7.87;6.10;;;20.00;67.00;;;;;;5017799;28;20194;-77
2021/03/30 11:08:37;;;;;;;10.77;5.47;;;19.90;65.00;;;;;;5020143;28;20212;-77
2021/03/30 11:11:03;;;;;;;6.97;6.23;;;20.10;65.80;;;;;;5014457;28;20274;-78
2021/03/30 11:14:21;;;;;;;7.93;5.90;;;20.10;64.40;;;;;;5022293;28;20187;-84
2021/03/30 11:16:48;;;;;;;7.80;6.27;;;20.20;63.40;;;;;;5017908;28;20796;-79
2021/03/30 11:19:14;;;;;;;7.03;5.83;;;20.30;62.90;;;;;;5009306;28;20963;-79
2021/03/30 11:21:40;;;;;;;5.80;5.20;;;20.30;62.40;;;;;;5023569;28;20422;-77
2021/03/30 11:24:06;;;;;;;8.03;5.37;;;20.40;63.30;;;;;;5018766;28;20180;-78
2021/03/30 11:26:32;;;;;;;8.17;5.30;;;20.50;61.50;;;;;;5012664;28;20200;-78
2021/03/30 11:29:00;;;;;;;6.40;5.70;;;20.60;61.40;;;;;;5019399;28;20480;-78
2021/03/30 11:34:26;;;;;;;5.43;4.93;;;20.80;61.80;;;;;;5015303;28;20538;-78
2021/03/30 11:36:58;;;;;;;5.77;4.70;;;21.00;60.50;;;;;;5022077;28;20442;-78
2021/03/30 11:39:24;;;;;;;8.10;5.00;;;21.10;59.20;;;;;;5016983;28;20459;-78
2021/03/30 11:41:50;;;;;;;6.63;4.10;;;21.30;58.10;;;;;;5019723;28;20433;-79
2021/03/30 11:44:15;;;;;;;6.70;5.67;;;21.50;58.60;;;;;;5027230;28;20194;-76
2021/03/30 11:46:41;;;;;;;6.93;6.17;;;21.60;58.10;;;;;;5017723;28;20680;-78
2021/03/30 11:49:06;;;;;;;9.13;6.40;;;21.60;58.60;;;;;;5014195;28;20619;-78
2021/03/30 11:51:32;;;;;;;6.33;5.73;;;21.70;58.50;;;;;;5016770;28;20184;-78
2021/03/30 11:53:57;;;;;;;9.00;5.80;;;21.70;57.40;;;;;;5014328;28;20537;-78
2021/03/30 11:56:23;;;;;;;6.37;5.77;;;21.90;57.90;;;;;;5017918;28;20183;-77
2021/03/30 11:58:49;;;;;;;7.07;6.37;;;22.20;57.40;;;;;;5017933;28;20215;-75
2021/03/30 12:01:14;;;;;;;7.50;6.03;;;22.70;56.30;;;;;;5027058;28;20221;-79
2021/03/30 12:03:40;;;;;;;8.77;5.30;;;23.00;54.80;;;;;;5019430;28;20180;-79
2021/03/30 12:06:06;;;;;;;7.20;5.27;;;23.50;55.40;;;;;;5024892;28;20241;-76
2021/03/30 12:08:35;;;;;;;7.20;5.60;;;24.10;54.90;;;;;;5023063;28;20600;-78
2021/03/30 12:11:02;;;;;;;7.33;6.60;;;24.20;53.30;;;;;;5024834;28;20473;-80
2021/03/30 12:13:27;;;;;;;6.33;5.73;;;24.70;53.60;;;;;;5021419;28;20430;-78
2021/03/30 12:15:54;;;;;;;6.80;5.77;;;24.90;54.10;;;;;;5022731;28;20437;-77
2021/03/30 12:18:20;;;;;;;5.83;5.33;;;25.50;53.80;;;;;;5018212;28;20208;-78
2021/03/30 12:20:46;;;;;;;7.47;6.10;;;25.90;52.60;;;;;;5018761;28;20512;-78
2021/03/30 12:23:11;;;;;;;7.13;6.40;;;26.00;51.00;;;;;;5024210;28;20431;-78
2021/03/30 12:25:37;;;;;;;8.60;7.70;;;26.10;51.30;;;;;;5023589;28;20257;-78
2021/03/30 12:28:03;;;;;;;7.40;6.63;;;26.20;50.40;;;;;;5029458;28;20211;-78
2021/03/30 12:30:29;;;;;;;7.83;6.33;;;26.30;49.40;;;;;;5025966;28;20187;-78
2021/03/30 12:32:54;;;;;;;7.87;7.17;;;26.00;49.70;;;;;;5021397;28;20437;-77
2021/03/30 12:35:20;;;;;;;8.57;6.40;;;26.10;48.90;;;;;;5028536;28;20276;-78
2021/03/30 12:37:46;;;;;;;8.67;7.03;;;26.20;49.40;;;;;;5025027;28;20196;-78
2021/03/30 12:40:11;;;;;;;7.20;6.60;;;26.60;48.80;;;;;;5027387;28;20217;-78
2021/03/30 12:42:37;;;;;;;7.13;6.53;;;26.90;48.90;;;;;;5027035;28;20203;-79
2021/03/30 12:45:04;;;;;;;6.20;5.60;;;27.30;48.30;;;;;;5024073;28;20191;-79
2021/03/30 12:47:29;;;;;;;6.10;5.50;;;28.10;47.30;;;;;;5027011;28;20213;-78
2021/03/30 12:49:55;;;;;;;8.33;6.87;;;28.20;46.60;;;;;;5029962;28;20469;-78
2021/03/30 12:52:20;;;;;;;7.17;6.47;;;28.10;46.10;;;;;;5022143;28;20214;-78
2021/03/30 12:54:46;;;;;;;7.83;6.17;;;28.10;45.50;;;;;;5028354;28;20183;-79
2021/03/30 12:57:11;;;;;;;7.60;6.40;;;28.10;46.20;;;;;;5019256;28;20755;-78
2021/03/30 12:59:37;;;;;;;6.67;5.47;;;28.60;45.20;;;;;;5015058;28;20637;-78
2021/03/30 13:02:03;;;;;;;7.30;6.23;;;28.70;44.50;;;;;;5020391;28;20183;-77
2021/03/30 13:04:28;;;;;;;6.17;5.67;;;28.50;43.70;;;;;;5017364;28;20188;-78
2021/03/30 13:06:54;;;;;;;7.33;6.63;;;28.30;44.00;;;;;;5024831;28;20588;-78
2021/03/30 13:09:19;;;;;;;6.90;6.20;;;28.30;43.40;;;;;;5025446;28;20207;-78
2021/03/30 13:11:45;;;;;;;9.63;6.07;;;28.20;44.00;;;;;;5031274;28;20270;-78